Key West, Florida
Current Conditions -  °F | °C
As of 8:53 PM on Friday 28 Nov 2014 (Local Time) from KEYW Reporting Station
Clear Clear  
Wind Chill: 18°   Ceiling: Unl
Heat Index: 18°   Visibility: 10mi
Dew Point:   Wind: 12mph
Humidity: 56%   Direction: 30°NNE
Pressure: 30.19"   Gusts: NA
Location:  24.55°N, 81.8°W
Report Text: KEYW 290153Z 03010KT 10SM CLR 18/09 A3019 RMK AO2 SLP223 T01830094
Loading
Personal Weather Stations






























Interactive Weather Map New forecast layout! Learn more

10-Day Weather Forecast

Advertisements
Track Severe Weather on mobile